• Join FlightAware (Why Join?)
  • Login
  • US Flag 
07:17AM EDT


 

Airport Tracker/Info


-or-


 

Live Flight TrackerFlight Track Log ✈ SKQ225 ✈ 26-Apr-2013 ✈ KSDF - KOSU

Flight Track Log - Related Links

Times and Time Zones

All times are in EDT time to prevent confusion due to time zone crossing. See the SKQ225 flight status page for this flight to view local times or setup timezone preferences in your user account.

Time Position Orientation Groundspeed Altitude Reporting Facility
EDT Latitude Longitude Course Direction KTS MPH feet Rate Location/Type
03:29AM 38.2000 -85.6500 46° Northeast 157 181 3,200  Level Louisville TRACON
03:29AM 38.2000 -85.6328 90° East 158 182 3,300 720 Climbing Indianapolis Center
03:30AM 38.2342 -85.5903 44° Northeast 167 192 4,200 840 Climbing Indianapolis Center
03:31AM 38.2669 -85.5464 46° Northeast 168 193 5,000 840 Climbing Indianapolis Center
03:32AM 38.2983 -85.5033 47° Northeast 167 192 6,000 900 Climbing Indianapolis Center
03:33AM 38.3641 -85.4692 38° Northeast  Level FlightAware Approximate
03:33AM 38.3300 -85.4628 45° Northeast 161 185 6,900  Level Indianapolis Center
03:34AM 38.3976 -85.4256 46° Northeast  Level FlightAware Approximate
03:34AM 38.3667 -85.4156 45° Northeast 180 207 7,000  Level Indianapolis Center
03:35AM 38.4050 -85.3639 47° Northeast 197 227 7,000  Level Indianapolis Center
03:36AM 38.4428 -85.3136 46° Northeast 196 226 7,000  Level Indianapolis Center
03:37AM 38.4811 -85.2628 46° Northeast 198 228 7,000  Level Indianapolis Center
03:38AM 38.5211 -85.2106 46° Northeast 199 229 7,000  Level Indianapolis Center
03:39AM 38.5622 -85.1581 45° Northeast 197 227 7,000  Level Indianapolis Center
03:40AM 38.6000 -85.1072 46° Northeast 197 227 7,000  Level Indianapolis Center
03:41AM 38.6361 -85.0558 48° Northeast 196 226 7,000  Level Indianapolis Center
03:42AM 38.6731 -85.0083 45° Northeast 198 228 7,000  Level Indianapolis Center
03:43AM 38.7111 -84.9583 46° Northeast 197 227 7,000  Level Indianapolis Center
03:44AM 38.7494 -84.9064 47° Northeast 199 229 7,000  Level Indianapolis Center
03:45AM 38.7878 -84.8544 47° Northeast 199 229 7,000  Level Indianapolis Center
03:46AM 38.8267 -84.8022 46° Northeast 201 231 7,000  Level Indianapolis Center
03:47AM 38.8656 -84.7517 45° Northeast 199 229 7,000  Level Indianapolis Center
03:48AM 38.9039 -84.7000 46° Northeast 199 229 7,000  Level Indianapolis Center
03:49AM 38.9500 -84.6500 40° Northeast 198 228 7,000  Level Cincinnati TRACON
03:50AM 38.9833 -84.5833 57° Northeast 196 226 7,000  Level Cincinnati TRACON
03:51AM 39.0167 -84.5500 38° Northeast 199 229 7,000  Level Cincinnati TRACON
03:52AM 39.0667 -84.4833 46° Northeast 197 227 7,000  Level Cincinnati TRACON
03:54AM 39.1183 -84.4078 49° Northeast 197 227 7,000  Level Indianapolis Center
03:54AM 39.1339 -84.3881 45° Northeast 200 230 7,000  Level Indianapolis Center
03:55AM 39.1558 -84.3564 48° Northeast 200 230 7,000  Level Indianapolis Center
03:55AM 39.1714 -84.3344 48° Northeast 199 229 7,000  Level Indianapolis Center
03:56AM 39.1958 -84.3053 43° Northeast 201 231 7,000  Level Indianapolis Center
03:56AM 39.2111 -84.2828 49° Northeast 201 231 7,000  Level Indianapolis Center
03:57AM 39.2333 -84.2536 45° Northeast 201 231 7,000  Level Indianapolis Center
03:57AM 39.2497 -84.2300 48° Northeast 201 231 7,000  Level Indianapolis Center
03:58AM 39.2711 -84.1992 48° Northeast 202 232 7,000  Level Indianapolis Center
03:58AM 39.2889 -84.1778 43° Northeast 200 230 7,000  Level Indianapolis Center
03:59AM 39.3089 -84.1475 50° Northeast 200 230 7,000  Level Indianapolis Center
03:59AM 39.3200 -84.1319 47° Northeast 201 231 7,000  Level Indianapolis Center
04:00AM 39.3511 -84.0908 46° Northeast 203 234 7,000  Level Indianapolis Center
04:00AM 39.3583 -84.0786 53° Northeast 201 231 7,000  Level Indianapolis Center
04:01AM 39.3886 -84.0392 45° Northeast 201 231 7,000  Level Indianapolis Center
04:01AM 39.3978 -84.0267 46° Northeast 201 231 7,000  Level Indianapolis Center
04:02AM 39.4261 -83.9872 47° Northeast 202 232 7,000  Level Indianapolis Center
04:02AM 39.4367 -83.9742 44° Northeast 201 231 7,000  Level Indianapolis Center
04:03AM 39.4747 -83.9197 48° Northeast 202 232 7,000 -120 Level Indianapolis Center
04:04AM 39.5036 -83.8783 48° Northeast 203 234 6,900 -240 Descending Indianapolis Center
04:04AM 39.5136 -83.8653 45° Northeast 204 235 6,800 -540 Descending Indianapolis Center
04:05AM 39.5456 -83.8239 45° Northeast 210 242 6,400 -420 Descending Indianapolis Center
04:05AM 39.5544 -83.8097 51° Northeast 207 238 6,400 -240 Level Indianapolis Center
04:06AM 39.5853 -83.7694 45° Northeast 210 242 6,200 -300 Descending Indianapolis Center
04:06AM 39.5953 -83.7536 51° Northeast 210 242 6,100 -300 Descending Indianapolis Center
04:07AM 39.6253 -83.7122 47° Northeast 209 241 5,900 -300 Descending Indianapolis Center
04:07AM 39.6353 -83.6986 46° Northeast 210 242 5,800 -300 Descending Indianapolis Center
04:08AM 39.6650 -83.6547 49° Northeast 209 241 5,600 -300 Descending Indianapolis Center
04:08AM 39.6750 -83.6417 45° Northeast 210 242 5,500 -540 Descending Indianapolis Center
04:09AM 39.7069 -83.5978 47° Northeast 214 246 5,100 -540 Descending Indianapolis Center
04:09AM 39.7150 -83.5853 50° Northeast 211 243 5,000 -420 Descending Indianapolis Center
04:10AM 39.7464 -83.5456 44° Northeast 204 235 4,700 -300 Descending Indianapolis Center
04:10AM 39.7547 -83.5308 54° Northeast 209 241 4,700 -300 Level Indianapolis Center
04:11AM 39.7839 -83.4906 47° Northeast 198 228 4,400 -420 Descending Indianapolis Center
04:11AM 39.7925 -83.4786 47° Northeast 203 234 4,300 -240 Descending Indianapolis Center
04:12AM 39.8211 -83.4406 46° Northeast 199 229 4,200 -240 Descending Indianapolis Center
04:12AM 39.8281 -83.4294 51° Northeast 196 226 4,100 -300 Descending Indianapolis Center
04:13AM 39.8583 -83.3881 46° Northeast 193 222 3,900 -300 Descending Indianapolis Center
04:13AM 39.8636 -83.3786 54° Northeast 193 222 3,800 -420 Descending Indianapolis Center
04:14AM 39.8911 -83.3378 49° Northeast 185 213 3,500 -420 Descending Indianapolis Center
04:14AM 39.8989 -83.3289 41° Northeast 189 217 3,400 -300 Descending Indianapolis Center
04:16AM 39.9459 -83.2528 51° Northeast  Level FlightAware Approximate
04:23AM 40.0667 -83.0667 37° Northeast  Level FlightAware Approximate
04:24AM 40.0798 -83.0732 37° Northeast  Level Estimated